Terminal Aerodrome Forecast
Issued by NWS

Home | Current Version | Previous Version | Graphics & Text | Print | Product List | Glossary On
Versions: 1 2 3 4 5 6 7 8 9 10 11 12 13 14 15
000
FTUS43 KGRB 292331
TAFCWA
TAF
KCWA 292331Z 3000/3024 28011G19KT P6SM -SHRA SCT035 BKN060
     FM300200 28007KT P6SM BKN050
     FM301400 27011G17KT P6SM BKN025 BKN040
     FM301700 28014G21KT P6SM VCSH SCT030 BKN045
      AMD LTD TO CLD VIS AND WIND 3003/3011=

USA.gov is the U.S. government's official web portal to all federal, state and local government web resources and services.